sensor_id;sensor_type;location;lat;lon;timestamp;pressure;altitude;pressure_sealevel;temperature;humidity
71964;BME280;59834;52.124;5.422;2022-08-07T00:01:16;102808.56;;;13.83;75.63
71964;BME280;59834;52.124;5.422;2022-08-07T00:04:04;102800.09;;;13.77;75.50
71964;BME280;59834;52.124;5.422;2022-08-07T00:06:34;102806.44;;;13.73;75.53
71964;BME280;59834;52.124;5.422;2022-08-07T00:09:10;102804.75;;;13.72;75.67
71964;BME280;59834;52.124;5.422;2022-08-07T00:11:43;102798.03;;;13.64;75.69
71964;BME280;59834;52.124;5.422;2022-08-07T00:14:22;102792.25;;;13.56;75.48
71964;BME280;59834;52.124;5.422;2022-08-07T00:16:57;102793.34;;;13.52;75.82
71964;BME280;59834;52.124;5.422;2022-08-07T00:19:24;102796.00;;;13.51;75.97
71964;BME280;59834;52.124;5.422;2022-08-07T00:22:11;102789.19;;;13.47;75.78
71964;BME280;59834;52.124;5.422;2022-08-07T00:24:50;102788.47;;;13.43;75.95
71964;BME280;59834;52.124;5.422;2022-08-07T00:27:16;102785.03;;;13.41;76.08
71964;BME280;59834;52.124;5.422;2022-08-07T00:29:47;102788.03;;;13.33;76.30
71964;BME280;59834;52.124;5.422;2022-08-07T00:32:15;102781.69;;;13.37;75.96
71964;BME280;59834;52.124;5.422;2022-08-07T00:34:42;102771.38;;;13.33;75.99
71964;BME280;59834;52.124;5.422;2022-08-07T00:37:08;102774.94;;;13.32;76.04
71964;BME280;59834;52.124;5.422;2022-08-07T00:39:36;102769.97;;;13.26;76.42
71964;BME280;59834;52.124;5.422;2022-08-07T00:42:20;102771.00;;;13.21;76.39
71964;BME280;59834;52.124;5.422;2022-08-07T00:44:54;102772.94;;;13.16;76.72
71964;BME280;59834;52.124;5.422;2022-08-07T00:47:21;102770.31;;;13.16;76.89
71964;BME280;59834;52.124;5.422;2022-08-07T00:50:07;102762.50;;;13.15;76.85
71964;BME280;59834;52.124;5.422;2022-08-07T00:52:46;102763.72;;;13.08;76.96
71964;BME280;59834;52.124;5.422;2022-08-07T00:55:13;102770.78;;;13.06;77.20
71964;BME280;59834;52.124;5.422;2022-08-07T00:57:50;102763.88;;;13.03;77.18
71964;BME280;59834;52.124;5.422;2022-08-07T01:00:21;102757.78;;;13.03;77.34
71964;BME280;59834;52.124;5.422;2022-08-07T01:02:49;102758.75;;;13.00;77.16
71964;BME280;59834;52.124;5.422;2022-08-07T01:05:17;102758.63;;;13.03;77.76
71964;BME280;59834;52.124;5.422;2022-08-07T01:07:45;102764.00;;;13.00;77.85
71964;BME280;59834;52.124;5.422;2022-08-07T01:10:14;102766.66;;;13.00;77.38
71964;BME280;59834;52.124;5.422;2022-08-07T01:12:44;102759.91;;;12.94;77.43
71964;BME280;59834;52.124;5.422;2022-08-07T01:15:21;102761.78;;;12.91;77.87
71964;BME280;59834;52.124;5.422;2022-08-07T01:18:08;102757.44;;;12.90;77.83
71964;BME280;59834;52.124;5.422;2022-08-07T01:20:42;102751.59;;;12.83;77.59
71964;BME280;59834;52.124;5.422;2022-08-07T01:23:24;102752.56;;;12.81;77.93
71964;BME280;59834;52.124;5.422;2022-08-07T01:26:05;102754.44;;;12.79;78.09
71964;BME280;59834;52.124;5.422;2022-08-07T01:28:38;102758.84;;;12.78;77.95
71964;BME280;59834;52.124;5.422;2022-08-07T01:31:11;102756.13;;;12.80;78.42
71964;BME280;59834;52.124;5.422;2022-08-07T01:33:45;102751.84;;;12.77;78.43
71964;BME280;59834;52.124;5.422;2022-08-07T01:36:22;102754.56;;;12.76;78.30
71964;BME280;59834;52.124;5.422;2022-08-07T01:39:01;102757.44;;;12.69;78.27
71964;BME280;59834;52.124;5.422;2022-08-07T01:41:36;102757.69;;;12.63;77.82
71964;BME280;59834;52.124;5.422;2022-08-07T01:44:06;102748.34;;;12.56;78.39
71964;BME280;59834;52.124;5.422;2022-08-07T01:46:33;102750.34;;;12.51;79.07
71964;BME280;59834;52.124;5.422;2022-08-07T01:49:00;102746.81;;;12.50;79.03
71964;BME280;59834;52.124;5.422;2022-08-07T01:51:29;102743.34;;;12.50;79.06
71964;BME280;59834;52.124;5.422;2022-08-07T01:54:18;102745.97;;;12.50;78.84
71964;BME280;59834;52.124;5.422;2022-08-07T02:00:00;102745.19;;;12.48;79.41
71964;BME280;59834;52.124;5.422;2022-08-07T02:02:39;102742.56;;;12.48;78.75
71964;BME280;59834;52.124;5.422;2022-08-07T02:05:51;102740.06;;;12.45;79.02
71964;BME280;59834;52.124;5.422;2022-08-07T02:08:26;102736.59;;;12.44;78.58
71964;BME280;59834;52.124;5.422;2022-08-07T02:10:55;102742.81;;;12.42;79.24
71964;BME280;59834;52.124;5.422;2022-08-07T02:13:30;102743.00;;;12.37;78.96
71964;BME280;59834;52.124;5.422;2022-08-07T02:16:18;102738.00;;;12.31;79.21
71964;BME280;59834;52.124;5.422;2022-08-07T02:19:05;102741.59;;;12.29;79.61
71964;BME280;59834;52.124;5.422;2022-08-07T02:21:54;102737.28;;;12.27;79.43
71964;BME280;59834;52.124;5.422;2022-08-07T02:24:25;102737.41;;;12.24;79.43
71964;BME280;59834;52.124;5.422;2022-08-07T02:26:57;102735.78;;;12.20;79.12
71964;BME280;59834;52.124;5.422;2022-08-07T02:29:27;102735.94;;;12.17;80.03
71964;BME280;59834;52.124;5.422;2022-08-07T02:31:56;102731.59;;;12.16;79.87
71964;BME280;59834;52.124;5.422;2022-08-07T02:34:25;102735.06;;;12.17;79.58
71964;BME280;59834;52.124;5.422;2022-08-07T02:36:54;102730.81;;;12.14;79.49
71964;BME280;59834;52.124;5.422;2022-08-07T02:39:25;102727.47;;;12.11;79.21
71964;BME280;59834;52.124;5.422;2022-08-07T02:42:10;102722.38;;;12.06;80.01
71964;BME280;59834;52.124;5.422;2022-08-07T02:44:47;102723.31;;;12.05;79.19
71964;BME280;59834;52.124;5.422;2022-08-07T02:47:17;102731.22;;;12.03;79.64
71964;BME280;59834;52.124;5.422;2022-08-07T02:49:45;102733.09;;;12.00;79.66
71964;BME280;59834;52.124;5.422;2022-08-07T02:52:38;102732.38;;;11.96;80.35
71964;BME280;59834;52.124;5.422;2022-08-07T02:55:13;102729.94;;;11.92;80.34
71964;BME280;59834;52.124;5.422;2022-08-07T02:57:56;102726.47;;;11.91;80.54
71964;BME280;59834;52.124;5.422;2022-08-07T03:00:25;102730.06;;;11.89;80.75
71964;BME280;59834;52.124;5.422;2022-08-07T03:02:55;102727.56;;;11.86;81.10
71964;BME280;59834;52.124;5.422;2022-08-07T03:05:25;102725.84;;;11.85;80.64
71964;BME280;59834;52.124;5.422;2022-08-07T03:08:02;102728.47;;;11.85;81.21
71964;BME280;59834;52.124;5.422;2022-08-07T03:10:36;102717.97;;;11.85;80.97
71964;BME280;59834;52.124;5.422;2022-08-07T03:13:09;102721.47;;;11.84;81.31
71964;BME280;59834;52.124;5.422;2022-08-07T03:15:35;102717.22;;;11.81;80.83
71964;BME280;59834;52.124;5.422;2022-08-07T03:18:22;102717.38;;;11.76;81.35
71964;BME280;59834;52.124;5.422;2022-08-07T03:21:00;102724.47;;;11.74;81.12
71964;BME280;59834;52.124;5.422;2022-08-07T03:23:27;102722.06;;;11.68;81.05
71964;BME280;59834;52.124;5.422;2022-08-07T03:26:17;102724.72;;;11.67;81.30
71964;BME280;59834;52.124;5.422;2022-08-07T03:28:49;102728.06;;;11.72;81.23
71964;BME280;59834;52.124;5.422;2022-08-07T03:31:18;102724.63;;;11.70;80.96
71964;BME280;59834;52.124;5.422;2022-08-07T03:33:54;102720.25;;;11.70;81.54
71964;BME280;59834;52.124;5.422;2022-08-07T03:36:23;102718.63;;;11.66;81.14
71964;BME280;59834;52.124;5.422;2022-08-07T03:38:54;102719.50;;;11.67;81.93
71964;BME280;59834;52.124;5.422;2022-08-07T03:41:23;102721.34;;;11.65;81.41
71964;BME280;59834;52.124;5.422;2022-08-07T03:44:10;102718.75;;;11.63;81.69
71964;BME280;59834;52.124;5.422;2022-08-07T03:46:40;102722.19;;;11.65;81.61
71964;BME280;59834;52.124;5.422;2022-08-07T03:49:28;102714.38;;;11.64;81.43
71964;BME280;59834;52.124;5.422;2022-08-07T03:51:57;102722.31;;;11.62;81.99
71964;BME280;59834;52.124;5.422;2022-08-07T03:54:27;102719.69;;;11.62;82.22
71964;BME280;59834;52.124;5.422;2022-08-07T03:57:14;102718.03;;;11.60;82.64
71964;BME280;59834;52.124;5.422;2022-08-07T04:00:01;102719.13;;;11.54;82.14
71964;BME280;59834;52.124;5.422;2022-08-07T04:02:29;102722.41;;;11.59;82.49
71964;BME280;59834;52.124;5.422;2022-08-07T04:04:57;102711.81;;;11.62;81.75
71964;BME280;59834;52.124;5.422;2022-08-07T04:07:24;102712.53;;;11.66;82.01
71964;BME280;59834;52.124;5.422;2022-08-07T04:10:02;102720.38;;;11.67;81.56
71964;BME280;59834;52.124;5.422;2022-08-07T04:12:31;102721.22;;;11.68;81.78
71964;BME280;59834;52.124;5.422;2022-08-07T04:15:00;102721.88;;;11.73;81.73
71964;BME280;59834;52.124;5.422;2022-08-07T04:17:30;102720.91;;;11.75;81.66
71964;BME280;59834;52.124;5.422;2022-08-07T04:20:16;102719.09;;;11.77;81.07
71964;BME280;59834;52.124;5.422;2022-08-07T04:22:45;102721.63;;;11.80;81.11
71964;BME280;59834;52.124;5.422;2022-08-07T04:25:26;102722.47;;;11.81;81.41
71964;BME280;59834;52.124;5.422;2022-08-07T04:28:05;102730.38;;;11.79;80.82
71964;BME280;59834;52.124;5.422;2022-08-07T04:30:34;102727.88;;;11.76;80.39
71964;BME280;59834;52.124;5.422;2022-08-07T04:33:21;102728.91;;;11.72;80.60
71964;BME280;59834;52.124;5.422;2022-08-07T04:35:53;102736.72;;;11.74;79.93
71964;BME280;59834;52.124;5.422;2022-08-07T04:38:24;102740.38;;;11.70;79.99
71964;BME280;59834;52.124;5.422;2022-08-07T04:40:51;102738.44;;;11.75;79.82
71964;BME280;59834;52.124;5.422;2022-08-07T04:43:29;102737.22;;;11.84;79.84
71964;BME280;59834;52.124;5.422;2022-08-07T04:51:52;102730.31;;;12.05;80.11
71964;BME280;59834;52.124;5.422;2022-08-07T05:00:13;102739.09;;;12.25;78.26
71964;BME280;59834;52.124;5.422;2022-08-07T05:03:13;102741.59;;;13.72;75.65
71964;BME280;59834;52.124;5.422;2022-08-07T05:06:06;102734.97;;;14.89;70.65
71964;BME280;59834;52.124;5.422;2022-08-07T05:09:06;102731.97;;;16.71;66.91
71964;BME280;59834;52.124;5.422;2022-08-07T05:11:39;102730.31;;;17.84;61.53
71964;BME280;59834;52.124;5.422;2022-08-07T05:14:37;102731.66;;;18.44;59.22
71964;BME280;59834;52.124;5.422;2022-08-07T05:17:24;102728.34;;;18.80;56.86
71964;BME280;59834;52.124;5.422;2022-08-07T05:20:15;102729.41;;;19.42;54.80
71964;BME280;59834;52.124;5.422;2022-08-07T05:22:43;102728.28;;;19.57;53.71
71964;BME280;59834;52.124;5.422;2022-08-07T05:25:14;102729.50;;;19.90;52.70
71964;BME280;59834;52.124;5.422;2022-08-07T05:28:03;102728.78;;;20.47;51.26
71964;BME280;59834;52.124;5.422;2022-08-07T05:30:50;102720.44;;;20.87;50.23
71964;BME280;59834;52.124;5.422;2022-08-07T05:33:18;102728.91;;;20.92;49.75
71964;BME280;59834;52.124;5.422;2022-08-07T05:35:48;102740.31;;;21.16;49.57
71964;BME280;59834;52.124;5.422;2022-08-07T05:38:18;102736.44;;;21.54;48.58
71964;BME280;59834;52.124;5.422;2022-08-07T05:41:06;102729.25;;;21.77;48.29
71964;BME280;59834;52.124;5.422;2022-08-07T05:43:47;102728.19;;;22.23;48.15
71964;BME280;59834;52.124;5.422;2022-08-07T05:46:35;102723.81;;;22.43;47.99
71964;BME280;59834;52.124;5.422;2022-08-07T05:49:05;102713.72;;;22.26;47.98
71964;BME280;59834;52.124;5.422;2022-08-07T05:51:38;102715.28;;;22.49;47.62
71964;BME280;59834;52.124;5.422;2022-08-07T05:54:07;102715.63;;;22.56;47.58
71964;BME280;59834;52.124;5.422;2022-08-07T05:56:55;102719.06;;;22.89;47.45
71964;BME280;59834;52.124;5.422;2022-08-07T05:59:24;102720.56;;;23.02;46.89
71964;BME280;59834;52.124;5.422;2022-08-07T06:01:53;102729.56;;;23.01;47.36
71964;BME280;59834;52.124;5.422;2022-08-07T06:04:23;102736.22;;;23.17;47.31
71964;BME280;59834;52.124;5.422;2022-08-07T06:06:56;102735.16;;;22.98;47.80
71964;BME280;59834;52.124;5.422;2022-08-07T06:09:32;102738.25;;;23.03;46.05
71964;BME280;59834;52.124;5.422;2022-08-07T06:12:19;102742.28;;;23.19;44.71
71964;BME280;59834;52.124;5.422;2022-08-07T06:14:56;102726.88;;;22.80;45.44
71964;BME280;59834;52.124;5.422;2022-08-07T06:17:31;102723.56;;;22.46;45.41
71964;BME280;59834;52.124;5.422;2022-08-07T06:20:04;102717.31;;;22.36;46.04
71964;BME280;59834;52.124;5.422;2022-08-07T06:22:31;102724.03;;;22.51;45.38
71964;BME280;59834;52.124;5.422;2022-08-07T06:25:05;102725.38;;;22.67;44.77
71964;BME280;59834;52.124;5.422;2022-08-07T06:27:36;102722.06;;;22.53;44.71
71964;BME280;59834;52.124;5.422;2022-08-07T06:30:23;102724.28;;;22.69;44.80
71964;BME280;59834;52.124;5.422;2022-08-07T06:33:03;102727.41;;;22.53;44.91
71964;BME280;59834;52.124;5.422;2022-08-07T06:35:35;102730.94;;;22.54;44.78
71964;BME280;59834;52.124;5.422;2022-08-07T06:38:22;102732.81;;;22.42;45.02
71964;BME280;59834;52.124;5.422;2022-08-07T06:40:57;102738.81;;;22.55;44.41
71964;BME280;59834;52.124;5.422;2022-08-07T06:43:25;102745.03;;;22.45;45.65
71964;BME280;59834;52.124;5.422;2022-08-07T06:46:05;102726.88;;;22.39;44.99
71964;BME280;59834;52.124;5.422;2022-08-07T06:48:37;102720.25;;;22.75;44.70
71964;BME280;59834;52.124;5.422;2022-08-07T06:51:13;102727.59;;;22.62;45.27
71964;BME280;59834;52.124;5.422;2022-08-07T06:53:57;102729.44;;;22.40;46.07
71964;BME280;59834;52.124;5.422;2022-08-07T06:56:49;102728.13;;;22.55;44.58
71964;BME280;59834;52.124;5.422;2022-08-07T06:59:23;102726.50;;;22.64;44.94
71964;BME280;59834;52.124;5.422;2022-08-07T07:02:20;102727.78;;;22.49;46.15
71964;BME280;59834;52.124;5.422;2022-08-07T07:05:07;102721.63;;;22.16;45.90
71964;BME280;59834;52.124;5.422;2022-08-07T07:07:38;102725.88;;;21.19;48.71
71964;BME280;59834;52.124;5.422;2022-08-07T07:10:30;102725.16;;;20.48;49.85
71964;BME280;59834;52.124;5.422;2022-08-07T07:13:07;102723.84;;;19.94;50.97
71964;BME280;59834;52.124;5.422;2022-08-07T07:15:42;102729.75;;;19.61;52.38
71964;BME280;59834;52.124;5.422;2022-08-07T07:18:35;102741.38;;;19.47;52.21
71964;BME280;59834;52.124;5.422;2022-08-07T07:21:26;102748.00;;;19.29;52.70
71964;BME280;59834;52.124;5.422;2022-08-07T07:24:19;102743.44;;;19.18;53.74
71964;BME280;59834;52.124;5.422;2022-08-07T07:26:50;102751.41;;;19.18;53.83
71964;BME280;59834;52.124;5.422;2022-08-07T07:29:24;102746.41;;;19.14;53.71
71964;BME280;59834;52.124;5.422;2022-08-07T07:32:13;102748.34;;;18.99;54.27
71964;BME280;59834;52.124;5.422;2022-08-07T07:34:51;102750.44;;;18.94;54.18
71964;BME280;59834;52.124;5.422;2022-08-07T07:37:19;102752.03;;;18.83;54.31
71964;BME280;59834;52.124;5.422;2022-08-07T07:40:13;102746.31;;;18.90;54.01
71964;BME280;59834;52.124;5.422;2022-08-07T07:42:42;102750.22;;;19.10;53.87
71964;BME280;59834;52.124;5.422;2022-08-07T07:45:18;102742.81;;;19.02;53.86
71964;BME280;59834;52.124;5.422;2022-08-07T07:48:08;102743.84;;;18.87;55.01
71964;BME280;59834;52.124;5.422;2022-08-07T07:50:36;102740.25;;;19.13;53.91
71964;BME280;59834;52.124;5.422;2022-08-07T07:53:06;102741.09;;;19.14;53.69
71964;BME280;59834;52.124;5.422;2022-08-07T07:55:46;102733.59;;;18.95;54.01
71964;BME280;59834;52.124;5.422;2022-08-07T07:58:32;102737.06;;;18.95;53.91
71964;BME280;59834;52.124;5.422;2022-08-07T08:01:07;102737.72;;;18.99;54.01
71964;BME280;59834;52.124;5.422;2022-08-07T08:03:56;102729.75;;;18.99;54.86
71964;BME280;59834;52.124;5.422;2022-08-07T08:06:37;102721.44;;;19.29;53.12
71964;BME280;59834;52.124;5.422;2022-08-07T08:09:18;102729.63;;;19.26;53.03
71964;BME280;59834;52.124;5.422;2022-08-07T08:11:48;102718.59;;;19.06;53.52
71964;BME280;59834;52.124;5.422;2022-08-07T08:14:34;102722.00;;;19.08;53.65
71964;BME280;59834;52.124;5.422;2022-08-07T08:17:09;102723.34;;;19.14;53.98
71964;BME280;59834;52.124;5.422;2022-08-07T08:20:00;102723.47;;;19.25;53.44
71964;BME280;59834;52.124;5.422;2022-08-07T08:22:48;102714.09;;;19.45;52.57
71964;BME280;59834;52.124;5.422;2022-08-07T08:25:37;102718.66;;;19.43;52.63
71964;BME280;59834;52.124;5.422;2022-08-07T08:28:35;102708.72;;;19.58;51.65
71964;BME280;59834;52.124;5.422;2022-08-07T08:31:14;102706.81;;;19.60;51.79
71964;BME280;59834;52.124;5.422;2022-08-07T08:34:04;102707.09;;;19.81;51.62
71964;BME280;59834;52.124;5.422;2022-08-07T08:36:34;102706.31;;;20.16;51.33
71964;BME280;59834;52.124;5.422;2022-08-07T08:39:04;102704.94;;;20.10;50.83
71964;BME280;59834;52.124;5.422;2022-08-07T08:44:31;102713.50;;;20.02;50.62
71964;BME280;59834;52.124;5.422;2022-08-07T08:56:02;102702.75;;;20.04;49.85
71964;BME280;59834;52.124;5.422;2022-08-07T08:59:01;102701.84;;;20.16;50.34
71964;BME280;59834;52.124;5.422;2022-08-07T09:04:40;102702.09;;;20.24;49.85
71964;BME280;59834;52.124;5.422;2022-08-07T09:07:15;102700.06;;;20.28;50.06
71964;BME280;59834;52.124;5.422;2022-08-07T09:10:08;102691.22;;;20.52;49.58
71964;BME280;59834;52.124;5.422;2022-08-07T09:13:04;102685.25;;;20.48;49.19
71964;BME280;59834;52.124;5.422;2022-08-07T09:15:50;102694.94;;;20.49;48.54
71964;BME280;59834;52.124;5.422;2022-08-07T09:25:46;102691.16;;;20.87;46.06
71964;BME280;59834;52.124;5.422;2022-08-07T09:28:40;102689.09;;;20.79;46.32
71964;BME280;59834;52.124;5.422;2022-08-07T09:31:42;102691.13;;;20.64;46.41
71964;BME280;59834;52.124;5.422;2022-08-07T09:34:23;102690.41;;;20.74;47.18
71964;BME280;59834;52.124;5.422;2022-08-07T09:37:18;102686.56;;;20.78;47.11
71964;BME280;59834;52.124;5.422;2022-08-07T09:40:27;102677.00;;;20.86;46.26
71964;BME280;59834;52.124;5.422;2022-08-07T09:43:06;102684.25;;;20.95;46.64
71964;BME280;59834;52.124;5.422;2022-08-07T09:45:44;102680.53;;;21.21;47.64
71964;BME280;59834;52.124;5.422;2022-08-07T09:48:57;102680.38;;;21.33;46.26
71964;BME280;59834;52.124;5.422;2022-08-07T09:52:09;102679.78;;;21.18;45.75
71964;BME280;59834;52.124;5.422;2022-08-07T10:01:22;102661.88;;;21.21;45.85
71964;BME280;59834;52.124;5.422;2022-08-07T10:04:27;102656.53;;;21.32;46.73
71964;BME280;59834;52.124;5.422;2022-08-07T10:25:19;102640.53;;;21.54;44.77
71964;BME280;59834;52.124;5.422;2022-08-07T10:31:06;102630.72;;;21.87;44.64
71964;BME280;59834;52.124;5.422;2022-08-07T10:36:55;102627.09;;;22.20;44.12
71964;BME280;59834;52.124;5.422;2022-08-07T10:42:31;102622.09;;;21.95;43.15
71964;BME280;59834;52.124;5.422;2022-08-07T10:45:16;102628.75;;;21.89;43.19
71964;BME280;59834;52.124;5.422;2022-08-07T10:47:58;102622.41;;;22.01;43.82
71964;BME280;59834;52.124;5.422;2022-08-07T10:50:40;102607.34;;;22.11;44.28
71964;BME280;59834;52.124;5.422;2022-08-07T10:53:27;102616.91;;;21.93;43.74
71964;BME280;59834;52.124;5.422;2022-08-07T10:56:18;102606.16;;;22.04;43.48
71964;BME280;59834;52.124;5.422;2022-08-07T10:59:14;102608.81;;;21.83;43.70
71964;BME280;59834;52.124;5.422;2022-08-07T11:13:43;102582.09;;;22.36;44.03
71964;BME280;59834;52.124;5.422;2022-08-07T11:17:00;102578.16;;;22.62;43.13
71964;BME280;59834;52.124;5.422;2022-08-07T11:19:39;102572.97;;;22.70;42.45
71964;BME280;59834;52.124;5.422;2022-08-07T11:22:24;102573.16;;;22.78;42.55
71964;BME280;59834;52.124;5.422;2022-08-07T11:25:29;102572.69;;;22.94;44.00
71964;BME280;59834;52.124;5.422;2022-08-07T11:28:18;102573.25;;;22.97;41.65
71964;BME280;59834;52.124;5.422;2022-08-07T11:39:08;102564.81;;;23.02;41.37
71964;BME280;59834;52.124;5.422;2022-08-07T11:42:09;102566.03;;;22.88;41.02
71964;BME280;59834;52.124;5.422;2022-08-07T11:45:17;102560.88;;;22.96;40.65
71964;BME280;59834;52.124;5.422;2022-08-07T11:51:08;102559.75;;;22.58;40.84
71964;BME280;59834;52.124;5.422;2022-08-07T12:00:16;102545.59;;;22.68;41.45
71964;BME280;59834;52.124;5.422;2022-08-07T12:11:26;102539.72;;;23.24;39.88
71964;BME280;59834;52.124;5.422;2022-08-07T12:14:06;102539.28;;;22.69;40.17
71964;BME280;59834;52.124;5.422;2022-08-07T12:16:50;102534.09;;;22.67;40.66
71964;BME280;59834;52.124;5.422;2022-08-07T12:19:42;102539.34;;;22.88;40.74
71964;BME280;59834;52.124;5.422;2022-08-07T12:23:18;102543.88;;;23.07;40.56
71964;BME280;59834;52.124;5.422;2022-08-07T12:25:35;102542.75;;;23.00;38.62
71964;BME280;59834;52.124;5.422;2022-08-07T12:31:47;102537.97;;;23.03;39.16
71964;BME280;59834;52.124;5.422;2022-08-07T12:34:31;102538.88;;;23.52;39.04
71964;BME280;59834;52.124;5.422;2022-08-07T12:37:03;102536.47;;;23.59;35.91
71964;BME280;59834;52.124;5.422;2022-08-07T12:39:49;102535.91;;;23.46;37.62
71964;BME280;59834;52.124;5.422;2022-08-07T12:42:26;102537.19;;;23.32;39.08
71964;BME280;59834;52.124;5.422;2022-08-07T12:45:02;102530.72;;;23.44;38.08
71964;BME280;59834;52.124;5.422;2022-08-07T12:47:46;102527.59;;;23.29;38.35
71964;BME280;59834;52.124;5.422;2022-08-07T12:53:17;102524.25;;;23.27;39.05
71964;BME280;59834;52.124;5.422;2022-08-07T12:56:09;102530.41;;;23.57;38.83
71964;BME280;59834;52.124;5.422;2022-08-07T12:58:43;102521.72;;;23.74;37.01
71964;BME280;59834;52.124;5.422;2022-08-07T13:07:13;102522.13;;;23.12;37.28
71964;BME280;59834;52.124;5.422;2022-08-07T13:10:16;102526.97;;;22.87;38.56
71964;BME280;59834;52.124;5.422;2022-08-07T13:13:31;102517.31;;;23.05;36.39
71964;BME280;59834;52.124;5.422;2022-08-07T13:16:24;102516.22;;;23.18;35.97
71964;BME280;59834;52.124;5.422;2022-08-07T13:22:10;102513.13;;;23.22;34.52
71964;BME280;59834;52.124;5.422;2022-08-07T13:24:57;102517.88;;;22.99;35.28
71964;BME280;59834;52.124;5.422;2022-08-07T13:27:36;102513.97;;;23.23;35.22
71964;BME280;59834;52.124;5.422;2022-08-07T13:30:25;102510.59;;;23.21;35.59
71964;BME280;59834;52.124;5.422;2022-08-07T13:33:28;102513.28;;;23.21;34.86
71964;BME280;59834;52.124;5.422;2022-08-07T13:36:23;102510.59;;;23.11;35.31
71964;BME280;59834;52.124;5.422;2022-08-07T13:41:47;102504.41;;;23.20;34.91
71964;BME280;59834;52.124;5.422;2022-08-07T13:44:35;102499.22;;;23.38;35.62
71964;BME280;59834;52.124;5.422;2022-08-07T13:47:07;102496.53;;;23.38;35.12
71964;BME280;59834;52.124;5.422;2022-08-07T13:49:47;102495.28;;;23.33;35.82
71964;BME280;59834;52.124;5.422;2022-08-07T13:52:38;102500.34;;;23.45;37.08
71964;BME280;59834;52.124;5.422;2022-08-07T13:55:14;102490.63;;;23.73;35.96
71964;BME280;59834;52.124;5.422;2022-08-07T13:57:58;102497.34;;;23.87;36.10
71964;BME280;59834;52.124;5.422;2022-08-07T14:00:59;102494.53;;;23.89;35.76
71964;BME280;59834;52.124;5.422;2022-08-07T14:03:35;102492.28;;;23.84;35.86
71964;BME280;59834;52.124;5.422;2022-08-07T14:06:33;102495.09;;;23.53;35.25
71964;BME280;59834;52.124;5.422;2022-08-07T14:09:03;102501.88;;;23.48;36.36
71964;BME280;59834;52.124;5.422;2022-08-07T14:11:35;102494.28;;;23.43;36.08
71964;BME280;59834;52.124;5.422;2022-08-07T14:14:32;102489.47;;;23.66;36.13
71964;BME280;59834;52.124;5.422;2022-08-07T14:17:04;102485.41;;;23.62;35.73
71964;BME280;59834;52.124;5.422;2022-08-07T14:19:55;102493.97;;;23.66;34.85
71964;BME280;59834;52.124;5.422;2022-08-07T14:22:47;102488.09;;;23.72;35.21
71964;BME280;59834;52.124;5.422;2022-08-07T14:25:15;102494.78;;;23.95;35.07
71964;BME280;59834;52.124;5.422;2022-08-07T14:27:50;102491.66;;;24.00;34.28
71964;BME280;59834;52.124;5.422;2022-08-07T14:30:38;102486.53;;;23.69;34.14
71964;BME280;59834;52.124;5.422;2022-08-07T14:33:06;102494.84;;;23.47;34.53
71964;BME280;59834;52.124;5.422;2022-08-07T14:35:35;102488.91;;;23.63;34.61
71964;BME280;59834;52.124;5.422;2022-08-07T14:38:13;102491.88;;;23.40;35.16
71964;BME280;59834;52.124;5.422;2022-08-07T14:41:09;102498.94;;;23.51;35.49
71964;BME280;59834;52.124;5.422;2022-08-07T14:43:42;102499.78;;;23.42;34.70
71964;BME280;59834;52.124;5.422;2022-08-07T14:46:33;102496.53;;;23.38;34.84
71964;BME280;59834;52.124;5.422;2022-08-07T14:49:02;102499.63;;;23.43;35.41
71964;BME280;59834;52.124;5.422;2022-08-07T14:51:49;102497.09;;;23.71;34.51
71964;BME280;59834;52.124;5.422;2022-08-07T14:54:33;102493.53;;;23.90;34.24
71964;BME280;59834;52.124;5.422;2022-08-07T14:57:12;102481.13;;;23.98;35.05
71964;BME280;59834;52.124;5.422;2022-08-07T15:00:01;102486.25;;;23.82;37.15
71964;BME280;59834;52.124;5.422;2022-08-07T15:02:33;102481.34;;;23.58;36.35
71964;BME280;59834;52.124;5.422;2022-08-07T15:05:04;102472.31;;;23.88;38.00
71964;BME280;59834;52.124;5.422;2022-08-07T15:07:47;102480.44;;;23.96;37.46
71964;BME280;59834;52.124;5.422;2022-08-07T15:10:39;102477.00;;;24.04;37.32
71964;BME280;59834;52.124;5.422;2022-08-07T15:13:28;102478.53;;;23.69;38.17
71964;BME280;59834;52.124;5.422;2022-08-07T15:16:05;102476.94;;;23.67;38.54
71964;BME280;59834;52.124;5.422;2022-08-07T15:18:54;102475.16;;;23.58;38.62
71964;BME280;59834;52.124;5.422;2022-08-07T15:21:32;102468.66;;;23.50;38.90
71964;BME280;59834;52.124;5.422;2022-08-07T15:24:27;102470.50;;;23.40;38.75
71964;BME280;59834;52.124;5.422;2022-08-07T15:27:19;102468.44;;;23.34;38.65
71964;BME280;59834;52.124;5.422;2022-08-07T15:29:51;102472.06;;;23.43;38.87
71964;BME280;59834;52.124;5.422;2022-08-07T15:32:47;102466.72;;;23.43;39.03
71964;BME280;59834;52.124;5.422;2022-08-07T15:35:30;102467.00;;;23.30;39.23
71964;BME280;59834;52.124;5.422;2022-08-07T15:38:19;102469.38;;;23.14;37.59
71964;BME280;59834;52.124;5.422;2022-08-07T15:40:57;102464.06;;;23.04;38.62
71964;BME280;59834;52.124;5.422;2022-08-07T15:43:58;102463.91;;;23.15;39.11
71964;BME280;59834;52.124;5.422;2022-08-07T15:46:27;102454.91;;;23.26;39.33
71964;BME280;59834;52.124;5.422;2022-08-07T15:49:06;102467.31;;;23.17;39.51
71964;BME280;59834;52.124;5.422;2022-08-07T15:54:30;102460.97;;;23.09;40.46
71964;BME280;59834;52.124;5.422;2022-08-07T15:59:29;102455.78;;;22.97;40.80
71964;BME280;59834;52.124;5.422;2022-08-07T16:02:12;102452.38;;;22.95;40.62
71964;BME280;59834;52.124;5.422;2022-08-07T16:04:41;102448.56;;;22.88;41.00
71964;BME280;59834;52.124;5.422;2022-08-07T16:07:11;102454.16;;;22.85;41.36
71964;BME280;59834;52.124;5.422;2022-08-07T16:10:20;102444.78;;;22.91;41.70